createdAt,value
2023-03-21T11:48:01.436Z,40.45
2023-03-21T11:50:33.987Z,40.64
2023-03-21T11:53:17.419Z,41.94
2023-03-21T11:56:01.961Z,40.78
2023-03-21T11:58:49.516Z,41.77
2023-03-21T12:01:23.952Z,39.37
2023-03-21T12:04:07.883Z,39.25
2023-03-21T12:06:52.850Z,39.46
2023-03-21T12:09:35.754Z,38.08
2023-03-21T12:12:18.689Z,36.39
2023-03-21T12:14:57.554Z,35.97
2023-03-21T12:17:41.949Z,35.75
2023-03-21T12:20:36.601Z,35.25
2023-03-21T12:23:28.786Z,36.05
2023-03-21T12:26:06.077Z,35.95
2023-03-21T12:28:48.148Z,33.92
2023-03-21T12:31:23.928Z,34.37
2023-03-21T12:34:04.924Z,32.84
2023-03-21T12:36:49.771Z,34.76
2023-03-21T12:39:27.264Z,35.42
2023-03-21T12:42:11.004Z,37.22
2023-03-21T12:44:42.227Z,38.35
2023-03-21T12:47:16.051Z,37.86
2023-03-21T12:49:48.267Z,38.21
2023-03-21T12:52:22.401Z,38.19
2023-03-21T12:54:52.755Z,38.68
2023-03-21T12:57:28.886Z,38.84
2023-03-21T13:00:01.748Z,39.02
2023-03-21T13:02:32.284Z,38.96
2023-03-21T13:05:07.445Z,39.11
2023-03-21T13:07:40.183Z,38.70
2023-03-21T13:10:14.676Z,39.19
2023-03-21T13:12:48.604Z,38.93
2023-03-21T13:15:38.803Z,38.75
2023-03-21T13:18:17.434Z,39.79
2023-03-21T13:20:49.512Z,40.16
2023-03-21T13:23:22.501Z,39.11
2023-03-21T13:25:53.941Z,39.31
2023-03-21T13:28:25.780Z,38.67
2023-03-21T13:30:54.141Z,38.25
2023-03-21T13:33:29.510Z,38.28
2023-03-21T13:36:05.746Z,38.68
2023-03-21T13:38:36.619Z,39.79
2023-03-21T13:41:08.559Z,40.01
2023-03-21T13:43:42.692Z,39.39
2023-03-21T13:46:11.882Z,39.73
2023-03-21T13:49:01.369Z,40.57
2023-03-21T13:51:43.262Z,40.61
2023-03-21T13:54:21.919Z,40.73
2023-03-21T13:56:51.841Z,40.68
2023-03-21T13:59:35.367Z,40.73
2023-03-21T14:02:23.229Z,40.53
2023-03-21T14:05:05.221Z,42.09
2023-03-21T14:07:34.774Z,41.25
2023-03-21T14:10:06.870Z,41.00
2023-03-21T14:12:40.229Z,41.22
2023-03-21T14:15:16.702Z,41.52
2023-03-21T14:17:50.840Z,41.38
2023-03-21T14:20:24.106Z,42.34
2023-03-21T14:22:51.610Z,41.60
2023-03-21T14:25:25.760Z,43.00
2023-03-21T14:27:55.926Z,43.63
2023-03-21T14:30:26.465Z,42.16
2023-03-21T14:32:56.722Z,42.07
2023-03-21T14:35:24.188Z,42.18
2023-03-21T14:37:52.036Z,42.08
2023-03-21T14:40:24.702Z,41.99
2023-03-21T14:42:53.040Z,42.45
2023-03-21T14:45:26.247Z,41.83
2023-03-21T14:48:01.843Z,41.44
2023-03-21T14:50:36.520Z,42.73
2023-03-21T14:53:05.690Z,42.76
2023-03-21T14:55:42.954Z,42.66
2023-03-21T14:58:12.960Z,41.51
2023-03-21T15:00:40.942Z,41.09
2023-03-21T15:03:08.624Z,41.46
2023-03-21T15:05:38.449Z,40.91
2023-03-21T15:08:12.976Z,41.07
2023-03-21T15:10:42.633Z,41.64
2023-03-21T15:13:18.618Z,41.11
2023-03-21T15:15:46.870Z,41.62
2023-03-21T15:18:18.249Z,41.85
2023-03-21T15:20:47.705Z,42.12
2023-03-21T15:23:21.785Z,42.17
2023-03-21T15:25:53.798Z,41.72
2023-03-21T15:28:21.318Z,41.23
2023-03-21T15:30:56.614Z,40.89
2023-03-21T15:33:25.007Z,41.72
2023-03-21T15:35:57.327Z,41.62
2023-03-21T15:38:30.612Z,41.93
2023-03-21T15:41:27.090Z,41.86
2023-03-21T15:44:02.032Z,42.22
2023-03-21T15:46:35.045Z,42.24
2023-03-21T15:49:12.036Z,42.98
2023-03-21T15:51:41.784Z,42.93
2023-03-21T15:54:15.264Z,42.91
2023-03-21T15:56:51.822Z,43.39
2023-03-21T15:59:19.770Z,43.21
2023-03-21T16:01:49.114Z,43.22
2023-03-21T16:04:19.124Z,43.95
2023-03-21T16:06:57.659Z,44.24
2023-03-21T16:09:25.944Z,45.29
2023-03-21T16:11:55.861Z,44.89
2023-03-21T16:14:24.168Z,45.18
2023-03-21T16:16:53.089Z,45.42
2023-03-21T16:19:24.730Z,45.77
2023-03-21T16:21:53.473Z,46.26
2023-03-21T16:24:22.081Z,46.36
2023-03-21T16:26:53.492Z,46.84
2023-03-21T16:29:23.288Z,47.13
2023-03-21T16:31:50.742Z,47.50
2023-03-21T16:34:19.638Z,47.31
2023-03-21T16:36:47.080Z,48.07
2023-03-21T16:39:18.278Z,47.87
2023-03-21T16:41:46.561Z,48.52
2023-03-21T16:44:18.721Z,48.24
2023-03-21T16:46:47.981Z,48.46
2023-03-21T16:49:19.609Z,47.95
2023-03-21T16:51:46.960Z,48.33
2023-03-21T16:54:14.205Z,48.61
2023-03-21T16:56:45.467Z,48.82
2023-03-21T16:59:14.726Z,49.52
2023-03-21T17:01:49.030Z,49.92
2023-03-21T17:04:19.628Z,49.93
2023-03-21T17:06:50.186Z,50.30
2023-03-21T17:09:21.437Z,50.16
2023-03-21T17:11:49.668Z,50.41
2023-03-21T17:14:21.309Z,50.39
2023-03-21T17:16:48.875Z,50.74
2023-03-21T17:19:19.278Z,50.84
2023-03-21T17:21:47.137Z,50.70
2023-03-21T17:24:14.438Z,50.77
2023-03-21T17:26:41.742Z,50.79
2023-03-21T17:29:12.249Z,50.87
2023-03-21T17:31:41.390Z,50.68
2023-03-21T17:34:09.792Z,51.18
2023-03-21T17:36:40.442Z,51.40
2023-03-21T17:39:09.721Z,51.28
2023-03-21T17:41:37.955Z,51.80
2023-03-21T17:44:05.867Z,51.86
2023-03-21T17:46:37.263Z,51.88
2023-03-21T17:49:05.085Z,51.91
2023-03-21T17:51:33.401Z,52.14
2023-03-21T17:54:02.287Z,51.99
2023-03-21T17:56:31.109Z,52.41
2023-03-21T17:58:59.937Z,52.25
2023-03-21T18:01:27.936Z,52.49
2023-03-21T18:03:58.365Z,53.41
2023-03-21T18:06:26.879Z,54.20
2023-03-21T18:08:55.789Z,54.57
2023-03-21T18:11:25.163Z,54.63
2023-03-21T18:14:06.507Z,54.97
2023-03-21T18:16:41.238Z,55.17
2023-03-21T18:19:10.225Z,54.49
2023-03-21T18:21:40.687Z,55.15
2023-03-21T18:24:08.932Z,56.19
2023-03-21T18:26:37.981Z,55.91
2023-03-21T18:32:05.473Z,56.20
2023-03-21T18:34:38.920Z,56.86
2023-03-21T18:37:08.116Z,56.53
2023-03-21T18:39:38.048Z,57.53
2023-03-21T18:42:07.800Z,55.83
2023-03-21T18:44:45.824Z,56.85
2023-03-21T18:47:13.969Z,57.90
2023-03-21T18:52:33.204Z,57.93
2023-03-21T18:55:00.739Z,57.88
2023-03-21T18:57:36.920Z,58.34
2023-03-21T19:00:12.835Z,58.46
2023-03-21T19:02:48.048Z,58.55
2023-03-21T19:05:18.769Z,58.41
2023-03-21T19:07:51.643Z,58.70
2023-03-21T19:10:21.015Z,58.83
2023-03-21T19:12:51.900Z,59.19
2023-03-21T19:15:21.901Z,59.75
2023-03-21T19:18:37.300Z,59.56
2023-03-21T19:20:43.433Z,59.25
2023-03-21T19:23:13.646Z,58.95
2023-03-21T19:25:42.949Z,59.18
2023-03-21T19:28:13.356Z,59.83
2023-03-21T19:30:49.761Z,59.63
2023-03-21T19:33:20.105Z,60.07
2023-03-21T19:36:06.171Z,59.71
2023-03-21T19:38:39.562Z,59.53
2023-03-21T19:41:13.179Z,58.82
2023-03-21T19:43:53.171Z,59.47
2023-03-21T19:46:25.183Z,59.80
2023-03-21T19:48:56.482Z,59.97
2023-03-21T19:51:30.029Z,60.07
2023-03-21T19:53:58.302Z,59.85
2023-03-21T19:56:27.277Z,59.89
2023-03-21T19:58:56.667Z,59.06
2023-03-21T20:01:28.493Z,59.63
2023-03-21T20:03:56.150Z,60.29
2023-03-21T20:06:24.118Z,61.88
2023-03-21T20:11:39.965Z,61.44
2023-03-21T20:14:09.450Z,62.21
2023-03-21T20:16:38.461Z,61.97
2023-03-21T20:19:10.442Z,63.62
2023-03-21T20:21:48.490Z,63.02
2023-03-21T20:24:17.816Z,63.61
2023-03-21T20:26:46.575Z,63.86
2023-03-21T20:32:06.606Z,64.07
2023-03-21T20:34:36.885Z,63.55
2023-03-21T20:37:06.674Z,63.64
2023-03-21T20:39:34.951Z,63.15
2023-03-21T20:42:02.572Z,64.24
2023-03-21T20:44:56.899Z,64.94
2023-03-21T20:47:20.216Z,65.70
2023-03-21T20:49:49.414Z,66.67
2023-03-21T20:55:09.088Z,66.11
2023-03-21T20:57:38.755Z,65.48
2023-03-21T21:00:15.099Z,65.51
2023-03-21T21:02:44.790Z,65.54
2023-03-21T21:05:33.081Z,64.85
2023-03-21T21:08:06.163Z,65.16
2023-03-21T21:10:35.063Z,64.84
2023-03-21T21:13:07.614Z,65.22
2023-03-21T21:15:37.574Z,64.52
2023-03-21T21:18:07.609Z,65.42
2023-03-21T21:20:37.769Z,64.71
2023-03-21T21:23:05.390Z,64.11
2023-03-21T21:25:34.366Z,64.25
2023-03-21T21:28:02.868Z,64.41
2023-03-21T21:30:33.994Z,65.23
2023-03-21T21:33:02.926Z,64.97
2023-03-21T21:35:33.786Z,65.91
2023-03-21T21:38:04.580Z,66.49
2023-03-21T21:40:31.910Z,65.79
2023-03-21T21:43:03.702Z,65.80
2023-03-21T21:45:31.063Z,65.66
2023-03-21T21:47:58.305Z,65.55
2023-03-21T21:50:27.050Z,65.04
2023-03-21T21:52:54.785Z,63.58
2023-03-21T21:55:22.533Z,65.09
2023-03-21T21:57:53.230Z,66.11
2023-03-21T22:00:20.885Z,66.17
2023-03-21T22:02:48.302Z,65.89
2023-03-21T22:05:19.009Z,65.58
2023-03-21T22:07:48.818Z,66.22
2023-03-21T22:10:17.522Z,66.13
2023-03-21T22:12:46.336Z,66.14
2023-03-21T22:15:14.669Z,66.42
2023-03-21T22:17:42.011Z,66.58
2023-03-21T22:20:12.874Z,65.42
2023-03-21T22:22:41.055Z,66.37
2023-03-21T22:25:11.589Z,66.71
2023-03-21T22:27:39.290Z,66.06
2023-03-21T22:30:08.466Z,65.36
2023-03-21T22:32:38.431Z,67.35
2023-03-21T22:35:07.217Z,67.55
2023-03-21T22:37:35.883Z,67.31
2023-03-21T22:40:06.271Z,68.06
2023-03-21T22:42:37.218Z,67.54
2023-03-21T22:45:06.231Z,68.00
2023-03-21T22:47:33.959Z,67.05
2023-03-21T22:50:03.373Z,67.43
2023-03-21T22:52:30.642Z,66.49
2023-03-21T22:54:57.804Z,65.73
2023-03-21T22:57:25.111Z,65.42
2023-03-21T22:59:53.850Z,67.47
2023-03-21T23:02:22.819Z,67.21
2023-03-21T23:04:53.246Z,66.94
2023-03-21T23:07:20.803Z,67.63
2023-03-21T23:09:48.738Z,68.07
2023-03-21T23:12:16.957Z,66.99
2023-03-21T23:14:44.583Z,66.85
2023-03-21T23:17:13.228Z,67.46
2023-03-21T23:19:41.251Z,66.03
2023-03-21T23:22:09.007Z,66.77
2023-03-21T23:24:38.017Z,66.01
2023-03-21T23:27:06.957Z,64.62
2023-03-21T23:29:34.165Z,64.01
2023-03-21T23:32:03.457Z,64.77
2023-03-21T23:34:32.391Z,66.60
2023-03-21T23:36:59.613Z,65.40
2023-03-21T23:39:29.513Z,66.06
2023-03-21T23:42:00.439Z,66.89
2023-03-21T23:44:27.889Z,66.52
2023-03-21T23:46:55.414Z,66.98
2023-03-21T23:49:22.739Z,67.76
2023-03-21T23:51:51.447Z,68.88
2023-03-21T23:54:18.811Z,68.20
2023-03-21T23:56:46.571Z,68.33
2023-03-21T23:59:13.949Z,68.71
